Cowan, Indiana
Current Conditions -  °F | °C
As of 11:53 PM on Saturday 22 Nov 2014 (Local Time) from KMIE Reporting Station
Overcast Overcast  
Wind Chill: 50°   Ceiling: 7500
Heat Index: 50°   Visibility: 10mi
Dew Point: 39°   Wind: 10mph
Humidity: 66%   Direction: 200°SSW
Pressure: 30"   Gusts: NA
Location:  40.1286°N, 85.3767°W
Report Text: KMIE 230453Z AUTO 20009KT 10SM FEW049 BKN075 OVC100 10/04 A3000 RMK AO2 RAE0356B13E44 SLP156 P0000 T01000039 401221011
Loading
Personal Weather Stations






























Interactive Weather Map New forecast layout! Learn more

10-Day Weather Forecast

Advertisements
Track Severe Weather on mobile